This is the latest recevied weather packets stored in our database for station/object LROD. If no packets are shown the sender has not sent any weather packets the latest 10 day(s).
| Time | Temp. | Humidity | Pressure | Rain* | Wind** | Luminosity | Snow |
|---|---|---|---|---|---|---|---|
| 1777801709 | 17.22° C | 34% | 1022 hPa | - | - | - | - |
| 1777800810 | 17.22° C | 34% | 1022 hPa | - | - | - | - |
| 1777799910 | 16.11° C | 36% | 1023 hPa | - | - | - | - |
| 1777799030 | 16.11° C | 36% | 1023 hPa | - | - | - | - |
| 1777798110 | 15° C | 39% | 1023 hPa | - | - | - | - |
| 1777797209 | 15° C | 39% | 1023 hPa | - | - | - | - |
| 1777796310 | 15° C | 39% | 1023 hPa | - | - | - | - |
| 1777795420 | 15° C | 39% | 1023 hPa | - | - | - | - |
| 1777794509 | 15° C | 42% | 1023 hPa | - | - | - | - |
| 1777793609 | 15° C | 42% | 1023 hPa | - | - | - | - |
| 1777792708 | 13.89° C | 44% | 1023 hPa | - | - | - | - |
| 1777791810 | 13.89° C | 44% | 1023 hPa | - | - | - | - |
| 1777790910 | 12.78° C | 51% | 1023 hPa | - | - | - | - |
| 1777790046 | 12.78° C | 51% | 1023 hPa | - | - | - | - |
| 1777789110 | 12.22° C | 47% | 1023 hPa | - | - | - | - |
| 1777788209 | 12.22° C | 47% | 1023 hPa | - | - | - | - |
| 1777787309 | 11.11° C | 54% | 1023 hPa | - | - | - | - |
| 1777786409 | 11.11° C | 54% | 1023 hPa | - | - | - | - |
| 1777785509 | 8.89° C | 62% | 1023 hPa | - | - | - | - |
| 1777784610 | 8.89° C | 62% | 1023 hPa | - | - | - | - |
| 1777783709 | 6.11° C | 71% | 1022 hPa | - | - | - | - |
| 1777782811 | 6.11° C | 71% | 1022 hPa | - | - | - | - |
| 1777781910 | 6.11° C | 71% | 1022 hPa | - | - | - | - |
| 1777781032 | 6.11° C | 71% | 1022 hPa | - | - | - | - |
| 1777780111 | 5° C | 76% | 1021 hPa | - | - | - | - |
* Rain since midnight (hover to see other rain measurements)
** Current wind speed in m/s (hover to see current wind gust speed)